createdAt,value
2019-04-26T00:00:53.140Z,4.00
2019-04-26T00:03:28.015Z,2.13
2019-04-26T00:05:57.485Z,1.30
2019-04-26T00:08:26.271Z,1.67
2019-04-26T00:11:02.451Z,1.80
2019-04-26T00:13:48.129Z,2.07
2019-04-26T00:16:38.365Z,2.40
2019-04-26T00:19:07.462Z,3.73
2019-04-26T00:21:36.628Z,3.10
2019-04-26T00:24:05.793Z,2.77
2019-04-26T00:26:34.945Z,2.30
2019-04-26T00:29:03.943Z,7.33
2019-04-26T00:31:44.601Z,3.77
2019-04-26T00:34:22.830Z,1.90
2019-04-26T00:36:51.732Z,2.00
2019-04-26T00:39:20.773Z,4.63
2019-04-26T00:41:50.200Z,3.23
2019-04-26T00:44:19.444Z,4.03
2019-04-26T00:46:50.873Z,5.43
2019-04-26T00:49:21.259Z,2.50
2019-04-26T00:51:51.017Z,2.60
2019-04-26T00:54:22.239Z,2.53
2019-04-26T00:57:02.034Z,3.17
2019-04-26T00:59:32.198Z,4.13
2019-04-26T01:02:08.465Z,3.83
2019-04-26T01:04:37.346Z,4.00
2019-04-26T01:07:08.652Z,2.73
2019-04-26T01:09:37.621Z,1.97
2019-04-26T01:12:06.613Z,2.37
2019-04-26T01:14:35.577Z,1.87
2019-04-26T01:17:04.712Z,1.87
2019-04-26T01:20:00.090Z,4.47
2019-04-26T01:22:32.993Z,2.67
2019-04-26T01:25:06.107Z,3.20
2019-04-26T01:27:37.311Z,2.77
2019-04-26T01:30:09.058Z,3.00
2019-04-26T01:32:40.909Z,3.53
2019-04-26T01:35:09.967Z,2.47
2019-04-26T01:38:03.869Z,3.80
2019-04-26T01:40:34.476Z,1.53
2019-04-26T01:43:26.419Z,2.17
2019-04-26T01:46:10.581Z,2.57
2019-04-26T01:48:53.541Z,3.33
2019-04-26T01:51:29.035Z,3.23
2019-04-26T01:53:57.988Z,2.30
2019-04-26T01:56:31.428Z,2.30
2019-04-26T01:59:00.467Z,5.10
2019-04-26T02:01:43.339Z,1.53
2019-04-26T02:04:12.656Z,2.20
2019-04-26T02:06:41.796Z,1.87
2019-04-26T02:09:11.517Z,2.50
2019-04-26T02:11:40.821Z,1.53
2019-04-26T02:14:10.239Z,1.20
2019-04-26T02:16:39.780Z,1.63
2019-04-26T02:19:08.764Z,4.53
2019-04-26T02:21:44.149Z,3.63
2019-04-26T02:24:18.180Z,2.77
2019-04-26T02:26:48.195Z,2.40
2019-04-26T02:29:26.649Z,1.60
2019-04-26T02:31:59.795Z,2.67
2019-04-26T02:34:31.304Z,1.27
2019-04-26T02:37:03.592Z,2.83
2019-04-26T02:39:39.340Z,3.70
2019-04-26T02:42:19.082Z,2.10
2019-04-26T02:45:10.385Z,2.80
2019-04-26T02:47:57.742Z,1.37
2019-04-26T02:50:46.976Z,2.37
2019-04-26T02:53:33.560Z,3.87
2019-04-26T02:56:37.731Z,3.27
2019-04-26T02:59:34.570Z,2.80
2019-04-26T03:02:07.245Z,2.03
2019-04-26T03:04:40.882Z,2.50
2019-04-26T03:07:15.427Z,3.00
2019-04-26T03:09:47.503Z,1.63
2019-04-26T03:12:18.530Z,1.70
2019-04-26T03:15:13.907Z,2.37
2019-04-26T03:17:49.415Z,3.07
2019-04-26T03:20:21.973Z,1.70
2019-04-26T03:23:08.046Z,2.77
2019-04-26T03:26:12.902Z,1.50
2019-04-26T03:29:02.189Z,2.33
2019-04-26T03:32:02.342Z,2.97
2019-04-26T03:34:50.782Z,2.60
2019-04-26T03:38:11.283Z,3.90
2019-04-26T03:41:24.015Z,2.27
2019-04-26T03:44:12.147Z,1.63
2019-04-26T03:46:58.852Z,3.73
2019-04-26T03:50:09.773Z,2.23
2019-04-26T03:53:30.960Z,2.77
2019-04-26T03:56:36.486Z,2.63
2019-04-26T03:59:42.815Z,5.60
2019-04-26T04:02:21.914Z,2.40
2019-04-26T04:05:03.297Z,3.37
2019-04-26T04:07:39.131Z,3.77
2019-04-26T04:10:20.124Z,3.37
2019-04-26T04:14:07.073Z,3.00
2019-04-26T04:17:11.761Z,2.83
2019-04-26T04:20:51.721Z,3.10
2019-04-26T04:24:04.659Z,3.47
2019-04-26T04:27:10.460Z,4.53
2019-04-26T04:29:54.480Z,3.93
2019-04-26T04:32:30.149Z,5.33
2019-04-26T04:35:06.249Z,5.47
2019-04-26T04:38:09.667Z,6.37
2019-04-26T04:41:31.677Z,7.90
2019-04-26T04:45:12.945Z,7.33
2019-04-26T04:48:01.260Z,6.37
2019-04-26T04:50:42.552Z,5.50
2019-04-26T04:53:41.178Z,7.77
2019-04-26T04:56:35.426Z,5.40
2019-04-26T04:59:36.910Z,5.90
2019-04-26T05:02:20.811Z,7.00
2019-04-26T05:05:24.513Z,4.87
2019-04-26T05:34:02.482Z,11.57
2019-04-26T05:37:27.978Z,12.50
2019-04-26T05:40:13.506Z,13.10
2019-04-26T05:43:26.856Z,11.73
2019-04-26T05:46:34.459Z,12.77
2019-04-26T05:49:50.404Z,14.80
2019-04-26T05:53:08.276Z,15.47
2019-04-26T05:56:31.244Z,14.50
2019-04-26T05:59:17.687Z,14.03
2019-04-26T06:02:31.120Z,18.53
2019-04-26T06:05:31.301Z,15.83
2019-04-26T06:08:53.820Z,16.53
2019-04-26T06:11:32.776Z,15.17
2019-04-26T06:14:34.892Z,13.00
2019-04-26T06:17:36.732Z,12.20
2019-04-26T06:20:23.933Z,14.93
2019-04-26T06:23:22.728Z,14.47
2019-04-26T06:26:08.165Z,14.60
2019-04-26T06:28:57.100Z,14.60
2019-04-26T06:31:30.809Z,12.87
2019-04-26T06:34:11.586Z,12.90
2019-04-26T06:37:08.499Z,13.67
2019-04-26T06:40:06.018Z,12.05
2019-04-26T06:43:15.385Z,11.57
2019-04-26T06:46:47.530Z,9.80
2019-04-26T06:49:41.680Z,9.38
2019-04-26T06:52:15.102Z,10.20
2019-04-26T06:55:10.010Z,16.25
2019-04-26T06:58:14.490Z,10.85
2019-04-26T07:01:11.798Z,8.53
2019-04-26T07:04:21.295Z,10.85
2019-04-26T07:07:02.563Z,6.80
2019-04-26T07:09:38.779Z,9.25
2019-04-26T07:12:42.649Z,11.93
2019-04-26T07:16:16.471Z,6.45
2019-04-26T07:19:16.355Z,7.47
2019-04-26T07:22:35.133Z,8.15
2019-04-26T07:25:40.292Z,5.95
2019-04-26T07:28:30.896Z,8.55
2019-04-26T07:31:13.490Z,6.72
2019-04-26T07:34:09.480Z,5.67
2019-04-26T07:37:15.521Z,6.45
2019-04-26T07:40:43.093Z,5.25
2019-04-26T07:43:38.782Z,3.75
2019-04-26T07:46:48.010Z,4.87
2019-04-26T07:50:04.038Z,4.78
2019-04-26T07:52:52.950Z,5.17
2019-04-26T07:55:50.481Z,5.47
2019-04-26T07:59:10.642Z,5.25
2019-04-26T08:02:09.004Z,5.60
2019-04-26T08:04:43.498Z,3.92
2019-04-26T08:07:21.034Z,5.58
2019-04-26T08:10:10.322Z,3.65
2019-04-26T08:12:42.532Z,3.85
2019-04-26T08:15:39.091Z,5.05
2019-04-26T08:18:15.273Z,4.15
2019-04-26T08:20:50.611Z,4.33
2019-04-26T08:23:41.946Z,3.37
2019-04-26T08:26:13.802Z,2.83
2019-04-26T08:28:45.346Z,4.33
2019-04-26T08:31:21.503Z,4.37
2019-04-26T08:33:57.083Z,3.37
2019-04-26T08:36:31.683Z,3.62
2019-04-26T08:39:01.875Z,5.20
2019-04-26T08:41:31.512Z,5.70
2019-04-26T08:44:24.260Z,5.25
2019-04-26T08:47:20.980Z,3.30
2019-04-26T08:50:09.676Z,4.28
2019-04-26T08:52:39.719Z,2.85
2019-04-26T08:55:10.579Z,2.92
2019-04-26T08:57:43.495Z,5.10
2019-04-26T09:00:35.462Z,6.28
2019-04-26T09:03:22.886Z,3.77
2019-04-26T09:06:19.133Z,5.85
2019-04-26T09:08:51.536Z,4.42
2019-04-26T09:11:26.384Z,5.00
2019-04-26T09:13:56.270Z,5.17
2019-04-26T09:16:26.015Z,6.83
2019-04-26T09:18:59.523Z,7.67
2019-04-26T09:21:37.018Z,9.80
2019-04-26T09:24:25.115Z,7.28
2019-04-26T09:27:12.787Z,6.87
2019-04-26T09:30:05.084Z,7.03
2019-04-26T09:32:42.311Z,7.35
2019-04-26T09:35:15.239Z,7.40
2019-04-26T09:37:43.443Z,8.33
2019-04-26T09:40:21.155Z,6.42
2019-04-26T09:43:10.596Z,7.85
2019-04-26T09:46:03.069Z,7.67
2019-04-26T09:48:40.536Z,7.83
2019-04-26T09:51:10.894Z,7.37
2019-04-26T09:53:43.269Z,5.90
2019-04-26T09:56:11.839Z,5.42
2019-04-26T09:58:41.089Z,6.05
2019-04-26T10:01:10.576Z,6.17
2019-04-26T10:03:39.864Z,4.95
2019-04-26T10:06:09.439Z,4.42
2019-04-26T10:08:38.615Z,4.70
2019-04-26T10:11:10.963Z,4.90
2019-04-26T10:13:58.645Z,4.33
2019-04-26T10:16:33.626Z,4.10
2019-04-26T10:19:16.339Z,3.72
2019-04-26T10:21:45.660Z,4.58
2019-04-26T10:24:15.254Z,5.47
2019-04-26T10:26:44.527Z,3.47
2019-04-26T10:29:14.743Z,4.47
2019-04-26T10:31:47.558Z,4.65
2019-04-26T10:34:16.733Z,2.65
2019-04-26T10:36:45.937Z,4.65
2019-04-26T10:39:17.017Z,3.20
2019-04-26T10:41:46.262Z,3.67
2019-04-26T10:44:15.836Z,5.05
2019-04-26T10:46:55.065Z,3.92
2019-04-26T10:49:42.053Z,6.53
2019-04-26T10:52:18.830Z,5.40
2019-04-26T10:54:52.014Z,3.10
2019-04-26T10:57:29.941Z,6.12
2019-04-26T11:00:02.679Z,3.77
2019-04-26T11:02:32.493Z,3.40
2019-04-26T11:05:01.713Z,4.27
2019-04-26T11:07:30.945Z,4.00
2019-04-26T11:10:03.006Z,4.30
2019-04-26T11:12:34.047Z,3.37
2019-04-26T11:15:06.190Z,2.80
2019-04-26T11:17:35.249Z,5.97
2019-04-26T11:20:06.185Z,4.67
2019-04-26T11:22:37.579Z,4.47
2019-04-26T11:25:08.555Z,2.72
2019-04-26T11:27:40.221Z,2.63
2019-04-26T11:30:12.079Z,3.08
2019-04-26T11:32:41.098Z,4.70
2019-04-26T11:35:11.805Z,3.83
2019-04-26T11:37:41.657Z,3.63
2019-04-26T11:40:14.534Z,2.50
2019-04-26T11:42:45.629Z,4.77
2019-04-26T11:45:15.892Z,3.57
2019-04-26T11:47:55.788Z,3.43
2019-04-26T11:50:17.844Z,6.22
2019-04-26T11:52:48.056Z,3.77
2019-04-26T11:55:17.429Z,3.17
2019-04-26T11:57:47.504Z,2.20
2019-04-26T12:00:32.365Z,2.30
2019-04-26T12:03:02.987Z,2.40
2019-04-26T12:05:39.568Z,2.92
2019-04-26T12:08:14.922Z,1.70
2019-04-26T12:10:45.860Z,2.05
2019-04-26T12:13:15.570Z,4.07
2019-04-26T12:15:45.430Z,3.65
2019-04-26T12:18:15.026Z,3.00
2019-04-26T12:20:44.430Z,3.73
2019-04-26T12:23:20.557Z,2.43
2019-04-26T12:25:49.310Z,3.33
2019-04-26T12:28:19.836Z,3.90
2019-04-26T12:30:49.439Z,3.90
2019-04-26T12:33:18.689Z,3.63
2019-04-26T12:35:48.248Z,3.07
2019-04-26T12:38:17.827Z,5.43
2019-04-26T12:40:47.885Z,3.92
2019-04-26T12:43:20.035Z,4.53
2019-04-26T12:46:16.200Z,3.85
2019-04-26T12:48:46.046Z,3.22
2019-04-26T12:51:16.624Z,2.60
2019-04-26T12:53:45.751Z,6.07
2019-04-26T12:56:15.548Z,3.83
2019-04-26T12:58:45.629Z,4.07
2019-04-26T13:02:05.084Z,4.67
2019-04-26T13:05:20.635Z,7.50
2019-04-26T13:07:52.508Z,3.67
2019-04-26T13:17:35.798Z,4.37
2019-04-26T13:29:23.000Z,3.70
2019-04-26T13:33:04.080Z,4.53
2019-04-26T13:35:33.280Z,4.27
2019-04-26T13:38:05.154Z,4.40
2019-04-26T13:44:05.903Z,4.67
2019-04-26T13:46:49.443Z,5.27
2019-04-26T13:49:26.577Z,5.20
2019-04-26T13:51:55.514Z,6.23
2019-04-26T13:54:24.366Z,6.07
2019-04-26T13:56:53.331Z,5.77
2019-04-26T13:59:22.313Z,5.60
2019-04-26T14:01:51.246Z,5.83
2019-04-26T14:04:20.209Z,5.37
2019-04-26T14:06:49.098Z,5.70
2019-04-26T14:09:18.015Z,8.03
2019-04-26T14:11:58.120Z,7.63
2019-04-26T14:14:35.314Z,9.03
2019-04-26T14:17:04.303Z,6.97
2019-04-26T14:19:33.163Z,7.27
2019-04-26T14:22:03.235Z,7.47
2019-04-26T14:24:44.180Z,8.13
2019-04-26T14:27:19.707Z,7.93
2019-04-26T14:29:50.081Z,6.77
2019-04-26T14:32:25.217Z,5.63
2019-04-26T14:34:54.221Z,6.50
2019-04-26T14:37:23.217Z,7.63
2019-04-26T14:39:55.366Z,7.43
2019-04-26T14:42:33.596Z,8.03
2019-04-26T14:44:54.080Z,10.30
2019-04-26T14:47:26.417Z,8.83
2019-04-26T14:49:57.596Z,10.07
2019-04-26T14:52:27.486Z,9.27
2019-04-26T14:54:54.614Z,9.17
2019-04-26T14:57:31.022Z,8.87
2019-04-26T14:59:58.144Z,8.27
2019-04-26T15:02:47.155Z,8.30
2019-04-26T15:05:22.317Z,8.37
2019-04-26T15:07:53.604Z,8.17
2019-04-26T15:10:23.524Z,8.27
2019-04-26T15:12:58.595Z,6.70
2019-04-26T15:15:30.975Z,7.77
2019-04-26T15:17:59.492Z,7.17
2019-04-26T15:20:27.846Z,7.30
2019-04-26T15:22:56.751Z,8.10
2019-04-26T15:25:28.675Z,6.40
2019-04-26T15:30:43.376Z,6.77
2019-04-26T15:34:08.782Z,7.00
2019-04-26T15:40:02.718Z,5.35
2019-04-26T15:43:39.863Z,4.17
2019-04-26T15:46:17.651Z,5.10
2019-04-26T15:49:42.837Z,4.83
2019-04-26T15:52:12.129Z,8.38
2019-04-26T15:54:42.491Z,3.95
2019-04-26T15:57:12.577Z,2.70
2019-04-26T15:59:43.042Z,5.63
2019-04-26T16:02:13.456Z,3.47
2019-04-26T16:05:40.567Z,1.93
2019-04-26T16:08:13.346Z,6.30
2019-04-26T16:10:43.150Z,2.60
2019-04-26T16:13:20.693Z,3.43
2019-04-26T16:15:48.754Z,3.13
2019-04-26T16:18:17.443Z,2.33
2019-04-26T16:21:05.741Z,3.07
2019-04-26T16:23:41.424Z,3.53
2019-04-26T16:26:12.763Z,3.77
2019-04-26T16:29:05.312Z,3.60
2019-04-26T16:31:46.086Z,2.47
2019-04-26T16:34:28.103Z,2.53
2019-04-26T16:36:58.719Z,2.00
2019-04-26T16:39:32.319Z,3.03
2019-04-26T16:42:04.388Z,2.70
2019-04-26T16:44:32.991Z,2.93
2019-04-26T16:47:05.655Z,2.23
2019-04-26T16:49:41.816Z,1.77
2019-04-26T16:52:07.890Z,1.60
2019-04-26T16:54:37.411Z,1.57
2019-04-26T16:57:11.466Z,2.50
2019-04-26T16:59:47.455Z,2.20
2019-04-26T17:04:39.791Z,2.23
2019-04-26T17:07:09.157Z,4.10
2019-04-26T17:09:55.793Z,2.27
2019-04-26T17:12:10.645Z,4.10
2019-04-26T17:14:47.865Z,2.10
2019-04-26T17:17:14.025Z,3.90
2019-04-26T17:19:43.516Z,3.30
2019-04-26T17:22:42.225Z,4.97
2019-04-26T17:25:26.860Z,2.80
2019-04-26T17:27:55.891Z,3.00
2019-04-26T17:30:26.229Z,2.70
2019-04-26T17:32:55.468Z,2.87
2019-04-26T17:35:25.406Z,5.20
2019-04-26T17:38:02.045Z,2.97
2019-04-26T17:40:30.160Z,3.60
2019-04-26T17:43:00.508Z,6.17
2019-04-26T17:45:30.622Z,7.23
2019-04-26T17:48:01.338Z,4.60
2019-04-26T17:50:30.956Z,6.43
2019-04-26T17:53:00.657Z,6.03
2019-04-26T17:55:33.348Z,7.60
2019-04-26T17:58:12.118Z,8.43
2019-04-26T18:00:46.007Z,7.17
2019-04-26T18:03:11.642Z,6.27
2019-04-26T18:05:55.948Z,7.20
2019-04-26T18:08:31.296Z,5.93
2019-04-26T18:10:43.191Z,6.47
2019-04-26T18:13:16.143Z,5.30
2019-04-26T18:15:48.485Z,5.87
2019-04-26T18:18:34.258Z,7.07
2019-04-26T18:21:40.927Z,8.97
2019-04-26T18:24:13.200Z,7.90
2019-04-26T18:26:43.300Z,8.27
2019-04-26T18:29:13.190Z,8.80
2019-04-26T18:31:43.822Z,7.77
2019-04-26T18:34:13.109Z,8.27
2019-04-26T18:36:42.996Z,10.60
2019-04-26T18:39:12.751Z,10.30
2019-04-26T18:41:41.914Z,8.77
2019-04-26T18:44:11.038Z,10.07
2019-04-26T18:46:49.279Z,7.70
2019-04-26T18:49:22.595Z,9.33
2019-04-26T18:51:50.167Z,8.90
2019-04-26T18:54:24.936Z,9.40
2019-04-26T18:57:15.544Z,8.93
2019-04-26T18:59:44.817Z,11.27
2019-04-26T19:02:19.880Z,11.83
2019-04-26T19:04:49.689Z,13.73
2019-04-26T19:07:31.304Z,13.93
2019-04-26T19:10:00.683Z,13.70
2019-04-26T19:12:23.240Z,15.17
2019-04-26T19:15:19.700Z,15.90
2019-04-26T19:18:07.775Z,15.23
2019-04-26T19:20:42.098Z,13.90
2019-04-26T19:23:12.280Z,15.30
2019-04-26T19:25:41.737Z,14.73
2019-04-26T19:28:12.177Z,15.37
2019-04-26T19:30:48.921Z,18.20
2019-04-26T19:33:17.045Z,17.80
2019-04-26T19:35:47.409Z,19.60
2019-04-26T19:38:15.088Z,19.57
2019-04-26T19:40:47.868Z,18.20
2019-04-26T19:47:07.236Z,20.60
2019-04-26T19:49:54.235Z,23.03
2019-04-26T19:52:33.642Z,22.97
2019-04-26T19:55:23.838Z,23.40
2019-04-26T19:57:59.697Z,24.93
2019-04-26T20:00:29.282Z,25.80
2019-04-26T20:02:58.492Z,25.90
2019-04-26T20:05:28.020Z,23.87
2019-04-26T20:07:58.456Z,26.00
2019-04-26T20:10:28.163Z,24.67
2019-04-26T20:12:57.447Z,25.77
2019-04-26T20:15:28.632Z,27.83
2019-04-26T20:18:00.296Z,28.13
2019-04-26T20:20:34.522Z,30.50
2019-04-26T20:23:05.802Z,29.87
2019-04-26T20:25:32.076Z,31.13
2019-04-26T20:28:03.087Z,34.37
2019-04-26T20:31:05.869Z,32.63
2019-04-26T20:33:34.932Z,31.87
2019-04-26T20:36:04.806Z,31.97
2019-04-26T20:38:42.706Z,32.20
2019-04-26T20:41:05.411Z,32.93
2019-04-26T20:43:36.764Z,32.80
2019-04-26T20:46:14.569Z,31.63
2019-04-26T20:48:46.604Z,32.70
2019-04-26T20:51:18.174Z,33.33
2019-04-26T20:53:47.086Z,37.33
2019-04-26T20:56:18.705Z,34.07
2019-04-26T20:58:48.156Z,36.33
2019-04-26T21:01:17.619Z,36.33
2019-04-26T21:03:47.463Z,38.57
2019-04-26T21:06:18.655Z,34.03
2019-04-26T21:08:47.893Z,40.23
2019-04-26T21:11:17.657Z,40.37
2019-04-26T21:13:47.407Z,37.87
2019-04-26T21:16:16.711Z,38.37
2019-04-26T21:18:45.976Z,37.60
2019-04-26T21:21:16.626Z,36.83
2019-04-26T21:33:21.440Z,32.67
2019-04-26T21:36:22.947Z,32.43
2019-04-26T21:39:13.882Z,34.13
2019-04-26T21:41:53.765Z,31.37
2019-04-26T21:44:22.736Z,35.03
2019-04-26T21:46:56.196Z,32.70
2019-04-26T21:49:24.317Z,34.53
2019-04-26T21:51:54.310Z,33.27
2019-04-26T21:54:25.152Z,32.87
2019-04-26T21:57:13.534Z,30.80
2019-04-26T21:59:44.170Z,35.83
2019-04-26T22:02:34.922Z,33.53
2019-04-26T22:05:03.567Z,35.73
2019-04-26T22:07:32.846Z,36.97
2019-04-26T22:10:23.805Z,34.10
2019-04-26T22:12:53.951Z,35.37
2019-04-26T22:15:40.090Z,38.93
2019-04-26T22:18:18.040Z,36.17
2019-04-26T22:20:52.261Z,35.73
2019-04-26T22:23:51.693Z,36.20
2019-04-26T22:26:20.642Z,34.00
2019-04-26T22:28:49.644Z,36.73
2019-04-26T22:31:18.561Z,34.03
2019-04-26T22:33:47.568Z,33.80
2019-04-26T22:36:16.609Z,39.70
2019-04-26T22:38:45.677Z,35.90
2019-04-26T22:41:28.420Z,35.33
2019-04-26T22:44:03.869Z,39.37
2019-04-26T22:46:49.524Z,37.80
2019-04-26T22:49:18.377Z,39.87
2019-04-26T22:51:47.401Z,37.77
2019-04-26T22:54:16.406Z,40.23
2019-04-26T22:56:46.005Z,36.53
2019-04-26T23:02:58.112Z,37.93
2019-04-26T23:05:30.746Z,37.37
2019-04-26T23:07:59.334Z,38.70
2019-04-26T23:10:34.584Z,39.13
2019-04-26T23:13:11.004Z,39.87
2019-04-26T23:16:11.355Z,39.40
2019-04-26T23:18:50.865Z,38.13
2019-04-26T23:21:26.802Z,36.40
2019-04-26T23:23:56.133Z,36.97
2019-04-26T23:26:25.711Z,40.73
2019-04-26T23:28:55.887Z,39.37
2019-04-26T23:31:25.244Z,38.30
2019-04-26T23:33:54.959Z,40.63
2019-04-26T23:36:24.507Z,39.13
2019-04-26T23:38:54.168Z,38.87
2019-04-26T23:41:23.773Z,37.23
2019-04-26T23:43:56.830Z,38.07
2019-04-26T23:46:25.888Z,41.00
2019-04-26T23:48:55.361Z,41.87
2019-04-26T23:51:26.255Z,40.23
2019-04-26T23:53:57.773Z,40.13
2019-04-26T23:56:27.145Z,39.83
2019-04-26T23:58:56.712Z,37.43
